LGAV/ATH METAR and TAF weather

Enter ICAO airport designator
Station Type Date Time Source
LGAV METAR 2021/08/04 19:20 UTC NOAA

LGAV 041920Z 28001KT CAVOK 32/10 Q1013 NOSIG


Station Type Date Time Source
LGAV Decoded METAR 2021/08/04 19:20 UTC NOAA

Athens Eleftherios Venizelos International Airport, Greece (LGAV) 37-56N 023-56E
Aug 04, 2021 - 03:20 PM EDT / 2021.08.04 1920 UTC
Wind: from the W (280 degrees) at 1 MPH (1 KT):0
Visibility: greater than 7 mile(s):0
Temperature: 89 F (32 C)
Dew Point: 50 F (10 C)
Relative Humidity: 25%
Pressure (altimeter): 29.91 in. Hg (1013 hPa)
ob: LGAV 041920Z 28001KT CAVOK 32/10 Q1013 NOSIG
cycle: 19

Station Type Date Time Source
LGAV TAF 2021/08/04 18:12 UTC NOAA

TAF TAF LGAV 041700Z 0418/0518 VRB05KT 9999 FEW030
BECMG 0506/0508 04010KT
BECMG 0513/0515 13010KT

Example: see airport list